sensor_id;sensor_type;location;lat;lon;timestamp;pressure;altitude;pressure_sealevel;temperature;humidity
40245;BME280;25963;42.694;23.600;2023-08-21T00:01:56;95521.19;;;22.74;72.46
40245;BME280;25963;42.694;23.600;2023-08-21T00:04:22;95518.50;;;22.74;69.72
40245;BME280;25963;42.694;23.600;2023-08-21T00:06:47;95517.88;;;22.59;70.30
40245;BME280;25963;42.694;23.600;2023-08-21T00:09:12;95519.81;;;22.53;71.97
40245;BME280;25963;42.694;23.600;2023-08-21T00:11:38;95516.59;;;22.51;70.07
40245;BME280;25963;42.694;23.600;2023-08-21T00:14:03;95511.28;;;22.17;72.50
40245;BME280;25963;42.694;23.600;2023-08-21T00:16:29;95526.38;;;22.37;73.87
40245;BME280;25963;42.694;23.600;2023-08-21T00:18:55;95525.63;;;22.60;71.96
40245;BME280;25963;42.694;23.600;2023-08-21T00:21:21;95521.06;;;22.61;71.12
40245;BME280;25963;42.694;23.600;2023-08-21T00:23:46;95509.75;;;22.00;74.20
40245;BME280;25963;42.694;23.600;2023-08-21T00:26:12;95529.56;;;22.44;71.47
40245;BME280;25963;42.694;23.600;2023-08-21T00:28:38;95520.38;;;22.50;71.63
40245;BME280;25963;42.694;23.600;2023-08-21T00:31:04;95527.84;;;22.24;71.25
40245;BME280;25963;42.694;23.600;2023-08-21T00:33:33;95518.28;;;22.42;72.92
40245;BME280;25963;42.694;23.600;2023-08-21T00:35:58;95518.47;;;22.16;72.37
40245;BME280;25963;42.694;23.600;2023-08-21T00:38:24;95510.97;;;22.18;71.59
40245;BME280;25963;42.694;23.600;2023-08-21T00:40:50;95531.75;;;22.37;72.79
40245;BME280;25963;42.694;23.600;2023-08-21T00:43:16;95531.41;;;22.14;73.12
40245;BME280;25963;42.694;23.600;2023-08-21T00:45:44;95521.41;;;21.85;74.34
40245;BME280;25963;42.694;23.600;2023-08-21T00:48:10;95529.31;;;22.06;74.52
40245;BME280;25963;42.694;23.600;2023-08-21T00:50:36;95521.97;;;21.82;73.69
40245;BME280;25963;42.694;23.600;2023-08-21T00:53:01;95521.66;;;21.89;73.52
40245;BME280;25963;42.694;23.600;2023-08-21T00:55:29;95536.59;;;21.66;74.72
40245;BME280;25963;42.694;23.600;2023-08-21T00:57:54;95536.97;;;21.88;74.28
40245;BME280;25963;42.694;23.600;2023-08-21T01:00:20;95538.72;;;22.03;75.36
40245;BME280;25963;42.694;23.600;2023-08-21T01:02:47;95545.53;;;21.96;74.09
40245;BME280;25963;42.694;23.600;2023-08-21T01:05:12;95548.81;;;21.82;74.90
40245;BME280;25963;42.694;23.600;2023-08-21T01:07:57;95542.16;;;21.75;75.08
40245;BME280;25963;42.694;23.600;2023-08-21T01:10:56;95538.28;;;21.47;76.13
40245;BME280;25963;42.694;23.600;2023-08-21T01:15:59;95542.22;;;21.64;76.67
40245;BME280;25963;42.694;23.600;2023-08-21T01:18:26;95547.50;;;21.20;77.93
40245;BME280;25963;42.694;23.600;2023-08-21T01:20:52;95538.31;;;21.41;78.02
40245;BME280;25963;42.694;23.600;2023-08-21T01:23:34;95520.03;;;21.49;76.79
40245;BME280;25963;42.694;23.600;2023-08-21T01:26:00;95535.69;;;21.36;79.35
40245;BME280;25963;42.694;23.600;2023-08-21T01:28:26;95536.94;;;20.79;80.15
40245;BME280;25963;42.694;23.600;2023-08-21T01:30:58;95543.78;;;21.21;79.12
40245;BME280;25963;42.694;23.600;2023-08-21T01:33:26;95527.06;;;21.29;78.56
40245;BME280;25963;42.694;23.600;2023-08-21T01:35:54;95531.63;;;21.34;77.11
40245;BME280;25963;42.694;23.600;2023-08-21T01:38:21;95536.34;;;20.97;79.34
40245;BME280;25963;42.694;23.600;2023-08-21T01:40:47;95536.84;;;21.10;78.21
40245;BME280;25963;42.694;23.600;2023-08-21T01:43:12;95529.81;;;21.19;77.56
40245;BME280;25963;42.694;23.600;2023-08-21T01:45:38;95533.22;;;21.35;78.15
40245;BME280;25963;42.694;23.600;2023-08-21T01:48:04;95537.28;;;21.37;77.44
40245;BME280;25963;42.694;23.600;2023-08-21T01:50:30;95521.72;;;21.29;77.47
40245;BME280;25963;42.694;23.600;2023-08-21T01:52:55;95537.28;;;21.37;77.53
40245;BME280;25963;42.694;23.600;2023-08-21T01:55:20;95540.25;;;21.36;76.93
40245;BME280;25963;42.694;23.600;2023-08-21T01:57:46;95534.66;;;21.17;77.28
40245;BME280;25963;42.694;23.600;2023-08-21T02:00:12;95539.69;;;21.34;76.58
40245;BME280;25963;42.694;23.600;2023-08-21T02:02:38;95538.59;;;21.45;77.14
40245;BME280;25963;42.694;23.600;2023-08-21T02:05:03;95532.38;;;21.45;76.30
40245;BME280;25963;42.694;23.600;2023-08-21T02:07:29;95536.72;;;21.40;76.60
40245;BME280;25963;42.694;23.600;2023-08-21T02:09:54;95525.03;;;21.06;78.23
40245;BME280;25963;42.694;23.600;2023-08-21T02:12:20;95538.34;;;21.26;76.65
40245;BME280;25963;42.694;23.600;2023-08-21T02:14:45;95543.22;;;21.19;77.76
40245;BME280;25963;42.694;23.600;2023-08-21T02:17:11;95543.78;;;21.21;77.03
40245;BME280;25963;42.694;23.600;2023-08-21T02:19:36;95547.00;;;21.13;77.33
40245;BME280;25963;42.694;23.600;2023-08-21T02:22:02;95524.91;;;20.51;79.83
40245;BME280;25963;42.694;23.600;2023-08-21T02:24:27;95521.97;;;20.58;79.75
40245;BME280;25963;42.694;23.600;2023-08-21T02:26:52;95529.75;;;20.44;80.69
40245;BME280;25963;42.694;23.600;2023-08-21T02:29:18;95529.50;;;20.40;81.30
40245;BME280;25963;42.694;23.600;2023-08-21T02:31:43;95526.25;;;20.38;82.41
40245;BME280;25963;42.694;23.600;2023-08-21T02:34:09;95529.47;;;20.50;81.55
40245;BME280;25963;42.694;23.600;2023-08-21T02:36:34;95521.41;;;20.71;80.35
40245;BME280;25963;42.694;23.600;2023-08-21T02:39:00;95539.06;;;20.82;79.88
40245;BME280;25963;42.694;23.600;2023-08-21T02:41:25;95532.56;;;20.98;79.70
40245;BME280;25963;42.694;23.600;2023-08-21T02:43:51;95538.78;;;20.94;81.18
40245;BME280;25963;42.694;23.600;2023-08-21T02:46:16;95533.13;;;20.95;80.59
40245;BME280;25963;42.694;23.600;2023-08-21T02:48:42;95520.31;;;20.82;81.14
40245;BME280;25963;42.694;23.600;2023-08-21T02:51:08;95529.94;;;20.83;80.17
40245;BME280;25963;42.694;23.600;2023-08-21T02:53:33;95524.03;;;20.86;79.52
40245;BME280;25963;42.694;23.600;2023-08-21T02:55:59;95537.75;;;20.80;79.13
40245;BME280;25963;42.694;23.600;2023-08-21T02:58:24;95532.69;;;20.42;80.96
40245;BME280;25963;42.694;23.600;2023-08-21T03:00:50;95525.72;;;20.46;80.43
40245;BME280;25963;42.694;23.600;2023-08-21T03:03:15;95533.25;;;20.34;82.25
40245;BME280;25963;42.694;23.600;2023-08-21T03:05:41;95536.75;;;20.19;82.44
40245;BME280;25963;42.694;23.600;2023-08-21T03:08:06;95528.16;;;20.12;82.03
40245;BME280;25963;42.694;23.600;2023-08-21T03:10:31;95534.56;;;20.52;81.13
40245;BME280;25963;42.694;23.600;2023-08-21T03:12:59;95528.94;;;20.54;80.46
40245;BME280;25963;42.694;23.600;2023-08-21T03:15:24;95538.03;;;20.47;80.90
40245;BME280;25963;42.694;23.600;2023-08-21T03:17:50;95536.16;;;20.48;80.36
40245;BME280;25963;42.694;23.600;2023-08-21T03:20:15;95547.97;;;20.32;81.82
40245;BME280;25963;42.694;23.600;2023-08-21T03:22:42;95547.16;;;20.46;80.78
40245;BME280;25963;42.694;23.600;2023-08-21T03:25:08;95557.09;;;20.41;81.42
40245;BME280;25963;42.694;23.600;2023-08-21T03:27:34;95542.84;;;20.45;80.47
40245;BME280;25963;42.694;23.600;2023-08-21T03:30:04;95550.91;;;20.61;80.07
40245;BME280;25963;42.694;23.600;2023-08-21T03:32:32;95564.03;;;20.62;80.27
40245;BME280;25963;42.694;23.600;2023-08-21T03:34:57;95544.19;;;20.63;79.40
40245;BME280;25963;42.694;23.600;2023-08-21T03:37:23;95555.72;;;20.74;79.53
40245;BME280;25963;42.694;23.600;2023-08-21T03:39:48;95546.88;;;20.63;79.94
40245;BME280;25963;42.694;23.600;2023-08-21T03:42:14;95540.72;;;20.58;81.50
40245;BME280;25963;42.694;23.600;2023-08-21T03:44:39;95557.34;;;20.65;80.53
40245;BME280;25963;42.694;23.600;2023-08-21T03:47:05;95529.75;;;20.59;80.50
40245;BME280;25963;42.694;23.600;2023-08-21T03:49:30;95542.84;;;20.61;80.48
40245;BME280;25963;42.694;23.600;2023-08-21T03:51:55;95540.19;;;20.45;81.38
40245;BME280;25963;42.694;23.600;2023-08-21T03:54:21;95548.25;;;20.20;82.25
40245;BME280;25963;42.694;23.600;2023-08-21T03:56:46;95563.00;;;20.53;81.38
40245;BME280;25963;42.694;23.600;2023-08-21T03:59:12;95549.59;;;20.53;80.90
40245;BME280;25963;42.694;23.600;2023-08-21T04:01:37;95554.91;;;20.63;81.50
40245;BME280;25963;42.694;23.600;2023-08-21T04:04:03;95561.09;;;20.23;82.40
40245;BME280;25963;42.694;23.600;2023-08-21T04:06:28;95553.59;;;20.20;81.86
40245;BME280;25963;42.694;23.600;2023-08-21T04:08:54;95556.28;;;20.40;80.92
40245;BME280;25963;42.694;23.600;2023-08-21T04:11:20;95563.22;;;20.31;81.13
40245;BME280;25963;42.694;23.600;2023-08-21T04:13:45;95563.75;;;20.28;81.70
40245;BME280;25963;42.694;23.600;2023-08-21T04:16:11;95583.84;;;20.71;80.22
40245;BME280;25963;42.694;23.600;2023-08-21T04:18:37;95580.38;;;20.66;80.62
40245;BME280;25963;42.694;23.600;2023-08-21T04:21:04;95577.69;;;20.71;81.73
40245;BME280;25963;42.694;23.600;2023-08-21T04:23:29;95573.09;;;20.82;81.90
40245;BME280;25963;42.694;23.600;2023-08-21T04:26:00;95572.88;;;20.68;81.87
40245;BME280;25963;42.694;23.600;2023-08-21T04:28:26;95576.53;;;21.03;81.40
40245;BME280;25963;42.694;23.600;2023-08-21T04:30:52;95577.91;;;20.95;80.25
40245;BME280;25963;42.694;23.600;2023-08-21T04:33:17;95563.84;;;21.29;79.68
40245;BME280;25963;42.694;23.600;2023-08-21T04:35:43;95573.16;;;21.52;78.13
40245;BME280;25963;42.694;23.600;2023-08-21T04:38:08;95565.59;;;21.59;78.27
40245;BME280;25963;42.694;23.600;2023-08-21T04:40:33;95560.09;;;21.84;78.14
40245;BME280;25963;42.694;23.600;2023-08-21T04:42:59;95573.09;;;22.06;76.37
40245;BME280;25963;42.694;23.600;2023-08-21T04:45:24;95567.09;;;22.54;75.04
40245;BME280;25963;42.694;23.600;2023-08-21T04:47:50;95583.88;;;23.66;69.54
40245;BME280;25963;42.694;23.600;2023-08-21T04:50:15;95571.41;;;24.78;64.72
40245;BME280;25963;42.694;23.600;2023-08-21T04:52:41;95550.81;;;25.79;60.63
40245;BME280;25963;42.694;23.600;2023-08-21T04:55:06;95569.84;;;26.78;55.23
40245;BME280;25963;42.694;23.600;2023-08-21T04:57:32;95568.41;;;27.60;51.83
40245;BME280;25963;42.694;23.600;2023-08-21T04:59:58;95558.91;;;28.23;49.56
40245;BME280;25963;42.694;23.600;2023-08-21T05:02:23;95575.56;;;29.04;46.50
40245;BME280;25963;42.694;23.600;2023-08-21T05:04:48;95562.13;;;29.75;44.15
40245;BME280;25963;42.694;23.600;2023-08-21T05:07:14;95566.78;;;30.38;41.56
40245;BME280;25963;42.694;23.600;2023-08-21T05:09:40;95564.00;;;30.80;40.85
40245;BME280;25963;42.694;23.600;2023-08-21T05:12:07;95579.84;;;31.23;38.90
40245;BME280;25963;42.694;23.600;2023-08-21T05:14:32;95579.97;;;31.51;38.28
40245;BME280;25963;42.694;23.600;2023-08-21T05:16:58;95586.44;;;31.83;38.84
40245;BME280;25963;42.694;23.600;2023-08-21T05:19:24;95569.19;;;31.55;37.17
40245;BME280;25963;42.694;23.600;2023-08-21T05:21:50;95560.75;;;31.72;37.54
40245;BME280;25963;42.694;23.600;2023-08-21T05:24:15;95572.91;;;31.99;36.90
40245;BME280;25963;42.694;23.600;2023-08-21T05:26:41;95590.31;;;32.35;35.97
40245;BME280;25963;42.694;23.600;2023-08-21T05:29:06;95587.56;;;32.47;36.30
40245;BME280;25963;42.694;23.600;2023-08-21T05:31:32;95586.31;;;32.73;35.89
40245;BME280;25963;42.694;23.600;2023-08-21T05:33:57;95586.91;;;33.10;35.93
40245;BME280;25963;42.694;23.600;2023-08-21T05:36:23;95575.34;;;33.01;34.76
40245;BME280;25963;42.694;23.600;2023-08-21T05:38:49;95593.78;;;33.04;33.84
40245;BME280;25963;42.694;23.600;2023-08-21T05:41:16;95598.31;;;32.56;34.93
40245;BME280;25963;42.694;23.600;2023-08-21T05:43:42;95576.97;;;32.74;34.86
40245;BME280;25963;42.694;23.600;2023-08-21T05:46:07;95595.72;;;32.76;35.39
40245;BME280;25963;42.694;23.600;2023-08-21T05:48:33;95594.59;;;32.77;34.13
40245;BME280;25963;42.694;23.600;2023-08-21T05:50:59;95584.84;;;32.91;35.09
40245;BME280;25963;42.694;23.600;2023-08-21T05:53:24;95582.31;;;33.14;34.97
40245;BME280;25963;42.694;23.600;2023-08-21T05:55:50;95589.75;;;33.30;34.63
40245;BME280;25963;42.694;23.600;2023-08-21T05:58:15;95592.78;;;32.40;35.29
40245;BME280;25963;42.694;23.600;2023-08-21T06:00:41;95590.66;;;32.46;35.39
40245;BME280;25963;42.694;23.600;2023-08-21T06:03:09;95596.25;;;32.65;34.80
40245;BME280;25963;42.694;23.600;2023-08-21T06:05:35;95598.91;;;33.06;35.19
40245;BME280;25963;42.694;23.600;2023-08-21T06:08:01;95592.91;;;33.32;34.14
40245;BME280;25963;42.694;23.600;2023-08-21T06:10:27;95589.13;;;32.77;36.84
40245;BME280;25963;42.694;23.600;2023-08-21T06:12:52;95599.25;;;33.20;34.95
40245;BME280;25963;42.694;23.600;2023-08-21T06:15:18;95594.66;;;33.08;34.78
40245;BME280;25963;42.694;23.600;2023-08-21T06:17:43;95596.44;;;33.16;37.05
40245;BME280;25963;42.694;23.600;2023-08-21T06:20:09;95604.91;;;33.43;34.17
40245;BME280;25963;42.694;23.600;2023-08-21T06:22:35;95595.22;;;33.30;35.33
40245;BME280;25963;42.694;23.600;2023-08-21T06:25:01;95598.81;;;33.50;34.68
40245;BME280;25963;42.694;23.600;2023-08-21T06:27:26;95596.78;;;33.31;34.35
40245;BME280;25963;42.694;23.600;2023-08-21T06:29:52;95596.59;;;33.08;33.64
40245;BME280;25963;42.694;23.600;2023-08-21T06:32:17;95593.63;;;33.45;33.55
40245;BME280;25963;42.694;23.600;2023-08-21T06:34:43;95605.25;;;33.41;34.92
40245;BME280;25963;42.694;23.600;2023-08-21T06:37:08;95592.03;;;33.28;33.62
40245;BME280;25963;42.694;23.600;2023-08-21T06:39:34;95584.34;;;33.49;34.55
40245;BME280;25963;42.694;23.600;2023-08-21T06:42:00;95590.91;;;33.60;35.34
40245;BME280;25963;42.694;23.600;2023-08-21T06:44:28;95588.44;;;33.91;33.71
40245;BME280;25963;42.694;23.600;2023-08-21T06:46:53;95594.25;;;33.89;33.02
40245;BME280;25963;42.694;23.600;2023-08-21T06:49:19;95600.22;;;33.59;33.97
40245;BME280;25963;42.694;23.600;2023-08-21T06:51:44;95590.59;;;33.50;33.66
40245;BME280;25963;42.694;23.600;2023-08-21T06:54:10;95613.63;;;33.49;33.86
40245;BME280;25963;42.694;23.600;2023-08-21T06:56:35;95608.06;;;33.77;33.33
40245;BME280;25963;42.694;23.600;2023-08-21T06:59:01;95591.88;;;33.52;35.16
40245;BME280;25963;42.694;23.600;2023-08-21T07:01:27;95588.94;;;33.61;33.57
40245;BME280;25963;42.694;23.600;2023-08-21T07:03:53;95590.59;;;33.50;34.22
40245;BME280;25963;42.694;23.600;2023-08-21T07:06:19;95591.88;;;33.52;35.26
40245;BME280;25963;42.694;23.600;2023-08-21T07:08:44;95593.91;;;32.95;34.51
40245;BME280;25963;42.694;23.600;2023-08-21T07:11:10;95596.31;;;32.97;33.57
40245;BME280;25963;42.694;23.600;2023-08-21T07:13:36;95596.56;;;32.92;35.75
40245;BME280;25963;42.694;23.600;2023-08-21T07:16:02;95582.59;;;32.81;34.72
40245;BME280;25963;42.694;23.600;2023-08-21T07:18:29;95596.56;;;32.92;34.46
40245;BME280;25963;42.694;23.600;2023-08-21T07:20:55;95599.03;;;32.97;36.33
40245;BME280;25963;42.694;23.600;2023-08-21T07:23:20;95591.66;;;33.13;33.95
40245;BME280;25963;42.694;23.600;2023-08-21T07:25:46;95594.28;;;32.94;34.08
40245;BME280;25963;42.694;23.600;2023-08-21T07:28:11;95597.41;;;32.80;34.53
40245;BME280;25963;42.694;23.600;2023-08-21T07:30:38;95597.25;;;32.33;35.32
40245;BME280;25963;42.694;23.600;2023-08-21T07:33:04;95590.50;;;32.99;36.56
40245;BME280;25963;42.694;23.600;2023-08-21T07:35:30;95588.00;;;31.97;37.61
40245;BME280;25963;42.694;23.600;2023-08-21T07:37:56;95578.44;;;32.71;37.03
40245;BME280;25963;42.694;23.600;2023-08-21T07:40:21;95579.16;;;32.84;34.49
40245;BME280;25963;42.694;23.600;2023-08-21T07:42:47;95597.75;;;33.38;37.66
40245;BME280;25963;42.694;23.600;2023-08-21T07:45:12;95584.53;;;33.72;35.42
40245;BME280;25963;42.694;23.600;2023-08-21T07:47:38;95569.00;;;33.60;35.07
40245;BME280;25963;42.694;23.600;2023-08-21T07:50:07;95572.94;;;33.79;35.28
40245;BME280;25963;42.694;23.600;2023-08-21T07:52:34;95587.91;;;33.66;35.98
40245;BME280;25963;42.694;23.600;2023-08-21T07:55:00;95576.94;;;34.17;34.83
40245;BME280;25963;42.694;23.600;2023-08-21T07:57:26;95572.16;;;34.14;34.47
40245;BME280;25963;42.694;23.600;2023-08-21T07:59:52;95579.59;;;33.97;34.95
40245;BME280;25963;42.694;23.600;2023-08-21T08:02:17;95572.38;;;34.05;34.57
40245;BME280;25963;42.694;23.600;2023-08-21T08:04:43;95569.13;;;34.19;34.30
40245;BME280;25963;42.694;23.600;2023-08-21T08:07:08;95572.44;;;34.28;35.64
40245;BME280;25963;42.694;23.600;2023-08-21T08:09:34;95565.03;;;34.09;32.92
40245;BME280;25963;42.694;23.600;2023-08-21T08:11:59;95563.25;;;34.56;33.55
40245;BME280;25963;42.694;23.600;2023-08-21T08:14:25;95579.00;;;34.82;35.09
40245;BME280;25963;42.694;23.600;2023-08-21T08:16:50;95560.22;;;34.61;31.97
40245;BME280;25963;42.694;23.600;2023-08-21T08:19:16;95564.91;;;34.41;33.55
40245;BME280;25963;42.694;23.600;2023-08-21T08:21:41;95572.31;;;34.60;33.29
40245;BME280;25963;42.694;23.600;2023-08-21T08:24:07;95551.56;;;35.01;32.87
40245;BME280;25963;42.694;23.600;2023-08-21T08:26:32;95551.63;;;34.23;35.25
40245;BME280;25963;42.694;23.600;2023-08-21T08:28:58;95561.03;;;34.84;32.71
40245;BME280;25963;42.694;23.600;2023-08-21T08:31:24;95558.44;;;35.14;34.96
40245;BME280;25963;42.694;23.600;2023-08-21T08:33:50;95548.44;;;35.49;33.66
40245;BME280;25963;42.694;23.600;2023-08-21T08:36:16;95542.16;;;35.48;32.73
40245;BME280;25963;42.694;23.600;2023-08-21T08:38:42;95549.81;;;35.62;30.83
40245;BME280;25963;42.694;23.600;2023-08-21T08:44:15;95538.50;;;34.52;30.84
40245;BME280;25963;42.694;23.600;2023-08-21T08:46:41;95537.50;;;35.26;32.86
40245;BME280;25963;42.694;23.600;2023-08-21T08:49:08;95533.00;;;35.63;30.80
40245;BME280;25963;42.694;23.600;2023-08-21T08:51:34;95522.31;;;35.55;31.21
40245;BME280;25963;42.694;23.600;2023-08-21T08:54:00;95529.25;;;35.75;32.00
40245;BME280;25963;42.694;23.600;2023-08-21T08:56:26;95516.22;;;35.99;32.59
40245;BME280;25963;42.694;23.600;2023-08-21T08:58:51;95532.25;;;36.23;30.82
40245;BME280;25963;42.694;23.600;2023-08-21T09:01:17;95525.59;;;36.24;31.63
40245;BME280;25963;42.694;23.600;2023-08-21T09:03:42;95516.13;;;36.52;30.46
40245;BME280;25963;42.694;23.600;2023-08-21T09:06:10;95522.97;;;36.69;29.81
40245;BME280;25963;42.694;23.600;2023-08-21T09:08:36;95516.28;;;36.66;31.71
40245;BME280;25963;42.694;23.600;2023-08-21T09:11:02;95524.09;;;36.64;28.97
40245;BME280;25963;42.694;23.600;2023-08-21T09:13:31;95512.50;;;36.82;26.89
40245;BME280;25963;42.694;23.600;2023-08-21T09:15:56;95502.22;;;37.16;28.70
40245;BME280;25963;42.694;23.600;2023-08-21T09:18:22;95504.22;;;37.19;26.52
40245;BME280;25963;42.694;23.600;2023-08-21T09:20:48;95497.69;;;37.45;26.04
40245;BME280;25963;42.694;23.600;2023-08-21T09:23:15;95499.47;;;37.16;28.09
40245;BME280;25963;42.694;23.600;2023-08-21T09:25:47;95510.97;;;35.86;26.38
40245;BME280;25963;42.694;23.600;2023-08-21T09:28:13;95517.28;;;36.17;26.32
40245;BME280;25963;42.694;23.600;2023-08-21T09:30:52;95502.63;;;36.06;26.61
40245;BME280;25963;42.694;23.600;2023-08-21T09:33:19;95477.00;;;35.68;27.12
40245;BME280;25963;42.694;23.600;2023-08-21T09:35:47;95494.59;;;36.58;29.18
40245;BME280;25963;42.694;23.600;2023-08-21T09:38:13;95491.69;;;37.25;27.65
40245;BME280;25963;42.694;23.600;2023-08-21T09:40:40;95477.44;;;37.67;26.40
40245;BME280;25963;42.694;23.600;2023-08-21T09:43:08;95469.97;;;36.68;25.69
40245;BME280;25963;42.694;23.600;2023-08-21T09:45:34;95465.28;;;37.13;27.03
40245;BME280;25963;42.694;23.600;2023-08-21T09:47:59;95462.75;;;36.97;27.67
40245;BME280;25963;42.694;23.600;2023-08-21T09:50:26;95462.00;;;37.49;25.74
40245;BME280;25963;42.694;23.600;2023-08-21T09:52:53;95463.31;;;37.73;25.28
40245;BME280;25963;42.694;23.600;2023-08-21T09:55:20;95468.59;;;37.37;25.28
40245;BME280;25963;42.694;23.600;2023-08-21T09:57:48;95463.94;;;37.48;25.99
40245;BME280;25963;42.694;23.600;2023-08-21T10:00:14;95460.06;;;37.56;24.03
40245;BME280;25963;42.694;23.600;2023-08-21T10:02:51;95458.13;;;37.01;22.93
40245;BME280;25963;42.694;23.600;2023-08-21T10:05:17;95445.38;;;37.31;26.17
40245;BME280;25963;42.694;23.600;2023-08-21T10:07:48;95448.72;;;37.06;24.12
40245;BME280;25963;42.694;23.600;2023-08-21T10:10:14;95465.53;;;37.49;23.36
40245;BME280;25963;42.694;23.600;2023-08-21T10:12:40;95457.06;;;37.20;22.51
40245;BME280;25963;42.694;23.600;2023-08-21T10:15:07;95451.25;;;36.85;22.73
40245;BME280;25963;42.694;23.600;2023-08-21T10:17:35;95453.72;;;36.97;21.97
40245;BME280;25963;42.694;23.600;2023-08-21T10:20:05;95443.91;;;36.96;21.92
40245;BME280;25963;42.694;23.600;2023-08-21T10:22:45;95450.75;;;37.16;23.06
40245;BME280;25963;42.694;23.600;2023-08-21T10:25:15;95449.94;;;37.12;21.82
40245;BME280;25963;42.694;23.600;2023-08-21T10:27:42;95427.53;;;37.10;21.76
40245;BME280;25963;42.694;23.600;2023-08-21T10:30:15;95436.94;;;37.09;21.32
40245;BME280;25963;42.694;23.600;2023-08-21T10:32:49;95437.91;;;37.35;22.10
40245;BME280;25963;42.694;23.600;2023-08-21T10:35:17;95431.78;;;37.00;21.23
40245;BME280;25963;42.694;23.600;2023-08-21T10:38:13;95434.75;;;36.81;22.75
40245;BME280;25963;42.694;23.600;2023-08-21T10:40:40;95432.63;;;37.08;23.26
40245;BME280;25963;42.694;23.600;2023-08-21T10:43:47;95422.81;;;37.07;23.09
40245;BME280;25963;42.694;23.600;2023-08-21T10:46:12;95413.19;;;36.87;23.54
40245;BME280;25963;42.694;23.600;2023-08-21T10:48:38;95422.75;;;37.00;22.74
40245;BME280;25963;42.694;23.600;2023-08-21T10:51:06;95410.81;;;37.37;22.60
40245;BME280;25963;42.694;23.600;2023-08-21T10:53:33;95399.72;;;37.19;21.34
40245;BME280;25963;42.694;23.600;2023-08-21T10:56:03;95423.81;;;37.40;22.11
40245;BME280;25963;42.694;23.600;2023-08-21T10:58:43;95404.94;;;36.87;22.09
40245;BME280;25963;42.694;23.600;2023-08-21T11:01:09;95418.16;;;37.18;22.10
40245;BME280;25963;42.694;23.600;2023-08-21T11:03:38;95406.44;;;37.29;22.35
40245;BME280;25963;42.694;23.600;2023-08-21T11:06:06;95415.97;;;37.45;22.55
40245;BME280;25963;42.694;23.600;2023-08-21T11:08:36;95396.88;;;37.08;20.50
40245;BME280;25963;42.694;23.600;2023-08-21T11:11:03;95389.78;;;37.04;22.21
40245;BME280;25963;42.694;23.600;2023-08-21T11:13:30;95394.22;;;37.22;22.00
40245;BME280;25963;42.694;23.600;2023-08-21T11:15:59;95407.53;;;36.65;21.96
40245;BME280;25963;42.694;23.600;2023-08-21T11:18:38;95404.97;;;36.46;21.20
40245;BME280;25963;42.694;23.600;2023-08-21T11:21:08;95396.38;;;36.51;21.88
40245;BME280;25963;42.694;23.600;2023-08-21T11:23:34;95410.75;;;37.26;21.51
40245;BME280;25963;42.694;23.600;2023-08-21T11:26:01;95398.19;;;37.29;22.52
40245;BME280;25963;42.694;23.600;2023-08-21T11:28:28;95390.22;;;37.79;22.23
40245;BME280;25963;42.694;23.600;2023-08-21T11:30:55;95413.47;;;37.19;23.22
40245;BME280;25963;42.694;23.600;2023-08-21T11:33:21;95392.53;;;37.04;22.86
40245;BME280;25963;42.694;23.600;2023-08-21T11:35:47;95406.19;;;36.93;22.92
40245;BME280;25963;42.694;23.600;2023-08-21T11:38:20;95397.16;;;36.48;22.69
40245;BME280;25963;42.694;23.600;2023-08-21T11:41:02;95394.81;;;36.50;22.98
40245;BME280;25963;42.694;23.600;2023-08-21T11:43:39;95409.34;;;36.50;21.20
40245;BME280;25963;42.694;23.600;2023-08-21T11:46:05;95391.56;;;36.82;20.97
40245;BME280;25963;42.694;23.600;2023-08-21T11:48:31;95398.56;;;36.75;22.56
40245;BME280;25963;42.694;23.600;2023-08-21T11:50:57;95384.50;;;36.81;22.79
40245;BME280;25963;42.694;23.600;2023-08-21T11:53:36;95392.94;;;37.06;22.50
40245;BME280;25963;42.694;23.600;2023-08-21T11:56:03;95381.41;;;36.89;23.41
40245;BME280;25963;42.694;23.600;2023-08-21T11:58:37;95377.59;;;37.01;23.53
40245;BME280;25963;42.694;23.600;2023-08-21T12:01:04;95384.34;;;37.11;22.91
40245;BME280;25963;42.694;23.600;2023-08-21T12:03:30;95385.75;;;37.53;22.95
40245;BME280;25963;42.694;23.600;2023-08-21T12:05:56;95380.75;;;36.55;22.34
40245;BME280;25963;42.694;23.600;2023-08-21T12:08:22;95369.69;;;36.48;23.46
40245;BME280;25963;42.694;23.600;2023-08-21T12:10:51;95379.91;;;36.51;22.56
40245;BME280;25963;42.694;23.600;2023-08-21T12:13:18;95374.50;;;36.58;23.24
40245;BME280;25963;42.694;23.600;2023-08-21T12:15:43;95382.53;;;36.37;22.85
40245;BME280;25963;42.694;23.600;2023-08-21T12:18:08;95374.34;;;36.44;22.79
40245;BME280;25963;42.694;23.600;2023-08-21T12:20:34;95363.41;;;36.51;21.61
40245;BME280;25963;42.694;23.600;2023-08-21T12:22:59;95368.94;;;37.03;21.49
40245;BME280;25963;42.694;23.600;2023-08-21T12:25:25;95366.88;;;36.89;22.27
40245;BME280;25963;42.694;23.600;2023-08-21T12:27:50;95355.22;;;37.03;23.50
40245;BME280;25963;42.694;23.600;2023-08-21T12:30:16;95348.97;;;36.54;22.81
40245;BME280;25963;42.694;23.600;2023-08-21T12:32:41;95364.59;;;36.50;22.01
40245;BME280;25963;42.694;23.600;2023-08-21T12:35:07;95353.19;;;36.96;22.71
40245;BME280;25963;42.694;23.600;2023-08-21T12:37:33;95361.59;;;37.24;21.90
40245;BME280;25963;42.694;23.600;2023-08-21T12:39:59;95355.22;;;37.03;23.59
40245;BME280;25963;42.694;23.600;2023-08-21T12:42:27;95358.75;;;36.55;23.16
40245;BME280;25963;42.694;23.600;2023-08-21T12:44:59;95361.66;;;36.28;23.53
40245;BME280;25963;42.694;23.600;2023-08-21T12:47:33;95349.28;;;36.49;23.22
40245;BME280;25963;42.694;23.600;2023-08-21T12:49:59;95358.53;;;36.30;23.64
40245;BME280;25963;42.694;23.600;2023-08-21T12:52:24;95335.25;;;36.17;22.47
40245;BME280;25963;42.694;23.600;2023-08-21T12:54:50;95327.41;;;36.56;21.73